Lindberg Crosby — WCO9247 — position and weather

sailwx.info

Track history (hours):
 
Tides and Currents Weather Stations Pressure Air Temp Water Temp Dewpoint Dewpoint Depression Visibility Wind Speed Wind Dir Waves Ship Positions

Lindberg Crosby

Owner: CROSBY, KURT, GOLDEN MEADOW, LA. More information available from US FCC via Universal Licensing System and Coast Guard Vessel Documentation Center.

Last reported at 2018-Jun-25 07:55 UTC. Time now 2018-Jun-25 13:47 UTC.
Position N 29°36' W 094°25'.

Length 18 m; draft 2.6 m.

Type: Tug. MMSI: 366978460.

Date/timePositionNaut miles runAvg speedWind from/ knotsBaromVisibWave heightAir tempDewpointWater temp
2018-Jun-25 07:55N 29°36' W 094°25'2 4.7
2018-Jun-25 07:28N 29°36' W 094°22'3 5.4
2018-Jun-25 06:59N 29°37' W 094°20'3 5.2
2018-Jun-25 06:29N 29°39' W 094°17'2 4.9
2018-Jun-25 06:01N 29°40' W 094°15'3 5.2
2018-Jun-25 05:30N 29°41' W 094°12'3 5.1
2018-Jun-25 05:01N 29°42' W 094°09'2 4.7
2018-Jun-25 04:31N 29°43' W 094°07'3 5.2
2018-Jun-25 04:00N 29°45' W 094°05'2 4.9
2018-Jun-25 03:31N 29°46' W 094°02'2 4.6
2018-Jun-25 03:01N 29°48' W 094°00'2 4.7
2018-Jun-25 02:30N 29°49' W 093°58'3 6.0
2018-Jun-25 02:00N 29°52' W 093°56'4 8.0
2018-Jun-25 01:30N 29°55' W 093°53'4 7.3
2018-Jun-25 01:00N 29°58' W 093°51'3 6.5
2018-Jun-25 00:31N 29°59' W 093°55'2 3.1
2018-Jun-25 00:01N 29°60' W 093°57'0 0.0
2018-Jun-24 23:31N 29°60' W 093°57'0 0.0
2018-Jun-24 23:01N 29°60' W 093°57'0 0.0
2018-Jun-24 22:31N 29°60' W 093°57'0 0.0
2018-Jun-24 22:01N 29°60' W 093°57'0 0.0
2018-Jun-24 21:31N 29°60' W 093°57'0 0.0
2018-Jun-24 21:00N 29°60' W 093°57'0 0.0
2018-Jun-24 20:31N 29°60' W 093°57'0 0.0
2018-Jun-24 20:00N 29°60' W 093°57'0 0.0
2018-Jun-24 19:31N 29°60' W 093°57'0 0.0
2018-Jun-24 19:01N 29°60' W 093°57'0 0.0
2018-Jun-24 18:30N 29°60' W 093°57'0 0.0
2018-Jun-24 18:01N 29°60' W 093°57'0 0.0
2018-Jun-24 17:30N 29°60' W 093°57'0 0.0
2018-Jun-24 17:00N 29°60' W 093°57'0 0.0
2018-Jun-24 16:30N 29°60' W 093°57'0 0.0
2018-Jun-24 16:00N 29°60' W 093°57'0 0.0
2018-Jun-24 15:30N 29°60' W 093°57'0 0.0
2018-Jun-24 15:01N 29°60' W 093°57'0 0.0
2018-Jun-24 14:31N 29°60' W 093°57'0 0.0
2018-Jun-24 14:01N 29°60' W 093°57'0 0.0
2018-Jun-24 13:31N 29°60' W 093°57'0 0.0
2018-Jun-24 13:01N 29°60' W 093°57'0 0.0
2018-Jun-24 12:30N 29°60' W 093°57'0 0.0
2018-Jun-24 12:01N 29°60' W 093°57'0 0.0
2018-Jun-24 11:31N 29°60' W 093°57'0 0.0
2018-Jun-24 11:00N 29°60' W 093°57'0 0.0
2018-Jun-24 10:31N 29°60' W 093°57'0 0.0
2018-Jun-24 10:01N 29°60' W 093°57'0 0.0
2018-Jun-24 09:31N 29°60' W 093°57'0 0.0
2018-Jun-24 09:01N 29°60' W 093°57'0 0.0
2018-Jun-24 08:30N 29°60' W 093°57'0 0.0
2018-Jun-24 08:01N 29°60' W 093°57'0 0.2
2018-Jun-24 07:30N 29°60' W 093°56'1 2.4
2018-Jun-24 07:00N 29°59' W 093°55'3 5.5
2018-Jun-24 06:30N 29°59' W 093°52'3 5.4
2018-Jun-24 06:01N 29°56' W 093°52'3 6.2
2018-Jun-24 05:31N 29°54' W 093°54'3 5.8
2018-Jun-24 05:01N 29°51' W 093°57'3 5.0
2018-Jun-24 04:30N 29°49' W 093°58'2 4.4
2018-Jun-24 04:00N 29°48' W 094°00'3 6.2
2018-Jun-24 03:31N 29°46' W 094°03'3 6.3
2018-Jun-24 03:00N 29°44' W 094°06'3 6.3
2018-Jun-24 02:30N 29°42' W 094°09'3 6.1
2018-Jun-24 02:00N 29°41' W 094°12'3 5.9
2018-Jun-24 01:30N 29°40' W 094°15'3 5.7
2018-Jun-24 00:59N 29°38' W 094°18'4 5.7
2018-Jun-24 00:19N 29°36' W 094°22'25 5.6
2018-Jun-23 19:51N 29°23' W 094°46'2 5.0
2018-Jun-23 19:29N 29°22' W 094°48'12 6.4
2018-Jun-23 17:35N 29°33' W 094°55'1 6.4
2018-Jun-23 17:23N 29°34' W 094°55'3 6.4
2018-Jun-23 17:00N 29°36' W 094°57'3 6.6
2018-Jun-23 16:30N 29°39' W 094°58'4 6.5
2018-Jun-23 15:54N 29°42' W 095°01'6 0.7
2018-Jun-23 07:13N 29°47' W 095°06'0 0.0
2018-Jun-23 07:00N 29°47' W 095°06'0 0.0
2018-Jun-23 06:31N 29°47' W 095°06'0 0.0
2018-Jun-23 06:00N 29°47' W 095°06'0 0.0
2018-Jun-23 05:29N 29°47' W 095°06'0 0.0
2018-Jun-23 05:00N 29°47' W 095°06'0 0.0
2018-Jun-23 04:30N 29°47' W 095°06'0 0.0
2018-Jun-23 03:59N 29°47' W 095°06'0 0.0
2018-Jun-23 03:30N 29°47' W 095°06'8 0.4
2018-Jun-22 06:16N 29°43' W 095°15'0 0.0
2018-Jun-22 05:58N 29°43' W 095°15'0 0.0
2018-Jun-22 04:42N 29°43' W 095°15'0 0.0
2018-Jun-22 03:45N 29°43' W 095°15'  
2018-Jun-19 18:05N 29°42' W 095°01'1 6.5
2018-Jun-19 17:57N 29°42' W 094°60'3 6.3
2018-Jun-19 17:30N 29°40' W 094°58'3 6.0
2018-Jun-19 17:00N 29°37' W 094°57'22 3.4
2018-Jun-19 10:33N 29°30' W 094°33'2 4.9
2018-Jun-19 10:13N 29°31' W 094°31'8 5.0
2018-Jun-19 08:43N 29°36' W 094°24'1 5.3
2018-Jun-19 08:30N 29°36' W 094°23'1 2.6
2018-Jun-19 08:00N 29°36' W 094°22'1 1.6
2018-Jun-19 07:30N 29°37' W 094°21'3 5.5
2018-Jun-19 07:00N 29°38' W 094°18'3 5.9
2018-Jun-19 06:30N 29°39' W 094°15'3 6.0
2018-Jun-19 06:00N 29°41' W 094°12'3 5.8
2018-Jun-19 05:30N 29°42' W 094°09'3 5.9
2018-Jun-19 05:01N 29°43' W 094°07'3 5.7
2018-Jun-19 04:30N 29°45' W 094°04'3 5.8
2018-Jun-19 04:01N 29°47' W 094°01'3 5.6
2018-Jun-19 03:30N 29°49' W 093°59'3 5.5
2018-Jun-19 03:01N 29°51' W 093°57'4 7.0
2018-Jun-19 02:30N 29°54' W 093°54'3 7.0
2018-Jun-19 02:00N 29°57' W 093°52'2 5.0
2018-Jun-19 01:31N 29°59' W 093°53'3 5.8
2018-Jun-19 01:00N 29°59' W 093°56'1 1.1
2018-Jun-19 00:31N 29°60' W 093°57'0 0.0
2018-Jun-19 00:00N 29°60' W 093°57'0 0.0
2018-Jun-18 23:30N 29°60' W 093°57'0 0.0
2018-Jun-18 23:01N 29°60' W 093°57'0 0.0
2018-Jun-18 22:31N 29°60' W 093°57'0 0.0
2018-Jun-18 22:01N 29°60' W 093°57'0 0.0
2018-Jun-18 21:31N 29°60' W 093°57'0 0.0
2018-Jun-18 21:01N 29°60' W 093°57'0 0.0
2018-Jun-18 20:31N 29°60' W 093°57'0 0.0
2018-Jun-18 20:00N 29°60' W 093°57'0 0.0
2018-Jun-18 19:31N 29°60' W 093°57'0 0.0
2018-Jun-18 19:00N 29°60' W 093°57'0 0.0
2018-Jun-18 18:31N 29°60' W 093°57'0 0.0
2018-Jun-18 18:00N 29°60' W 093°57'0 0.0
2018-Jun-18 17:31N 29°60' W 093°57'0 0.0
2018-Jun-18 17:01N 29°60' W 093°57'0 0.0
2018-Jun-18 16:31N 29°60' W 093°57'0 0.0
2018-Jun-18 16:01N 29°60' W 093°57'0 0.0
2018-Jun-18 15:31N 29°60' W 093°57'0 0.0
2018-Jun-18 15:01N 29°60' W 093°57'0 0.0
2018-Jun-18 14:31N 29°60' W 093°57'0 0.0
2018-Jun-18 14:01N 29°60' W 093°57'1 1.7
2018-Jun-18 13:30N 29°59' W 093°56'3 6.1
2018-Jun-18 13:01N 29°59' W 093°52'1 2.5
2018-Jun-18 12:31N 29°58' W 093°51'0 0.0
2018-Jun-18 12:00N 29°58' W 093°51'1 2.4
2018-Jun-18 11:31N 29°59' W 093°52'4 7.8
2018-Jun-18 11:01N 29°60' W 093°57'0 0.0
2018-Jun-18 10:31N 29°60' W 093°57'0 0.1
2018-Jun-18 10:01N 29°60' W 093°57'0 0.0
2018-Jun-18 09:30N 29°60' W 093°57'0 0.0
2018-Jun-18 09:01N 29°60' W 093°57'0 0.0
2018-Jun-18 08:31N 29°60' W 093°57'0 0.0
2018-Jun-18 08:00N 29°60' W 093°57'0 0.0
2018-Jun-18 07:31N 29°60' W 093°57'0 0.0
2018-Jun-18 07:00N 29°60' W 093°57'0 0.0
2018-Jun-18 06:31N 29°60' W 093°57'0 0.0
2018-Jun-18 06:01N 29°60' W 093°57'0 0.0
2018-Jun-18 05:30N 29°60' W 093°57'0 0.0
2018-Jun-18 05:01N 29°60' W 093°57'0 0.0
2018-Jun-18 04:30N 29°60' W 093°57'1 2.2
2018-Jun-18 04:00N 29°59' W 093°55'3 6.5
2018-Jun-18 03:30N 29°59' W 093°52'3 6.2
2018-Jun-18 03:01N 29°56' W 093°53'3 6.4
2018-Jun-18 02:31N 29°53' W 093°55'3 6.6
2018-Jun-18 02:00N 29°50' W 093°57'3 5.8
2018-Jun-18 01:31N 29°49' W 093°60'3 5.9
2018-Jun-18 01:00N 29°47' W 094°02'3 5.7
2018-Jun-18 00:30N 29°45' W 094°05'3 5.6
2018-Jun-18 00:00N 29°43' W 094°07'3 5.7
2018-Jun-17 23:30N 29°41' W 094°10'3 5.7
2018-Jun-17 23:00N 29°40' W 094°13'4 5.8
2018-Jun-17 22:24N 29°39' W 094°17'2 5.9
2018-Jun-17 22:00N 29°38' W 094°19'28 6.0
2018-Jun-17 17:21N 29°23' W 094°46'2 5.3
2018-Jun-17 17:00N 29°22' W 094°48'12 5.5
2018-Jun-17 14:48N 29°33' W 094°55'2 6.5
2018-Jun-17 14:30N 29°35' W 094°56'3 6.5
2018-Jun-17 13:59N 29°38' W 094°58'3 6.5
2018-Jun-17 13:30N 29°41' W 094°59'1 0.0
2018-Jun-15 11:46N 29°42' W 094°60'2 6.3
2018-Jun-15 11:30N 29°41' W 094°59'3 5.9
2018-Jun-15 10:59N 29°38' W 094°58'18 6.1
2018-Jun-15 08:04N 29°22' W 094°49'0 4.2
2018-Jun-15 08:00N 29°21' W 094°49'  
Track history (hours):
 
Tides and Currents Weather Stations Pressure Air Temp Water Temp Dewpoint Dewpoint Depression Visibility Wind Speed Wind Dir Waves Ship Positions

Lindberg Crosby

Owner: CROSBY, KURT, GOLDEN MEADOW, LA. More information available from US FCC via Universal Licensing System and Coast Guard Vessel Documentation Center.

Last reported at 2018-Jun-25 07:55 UTC. Time now 2018-Jun-25 13:47 UTC.
Position N 29°36' W 094°25'.

Length 18 m; draft 2.6 m.

Type: Tug. MMSI: 366978460.

Date/timePositionNaut miles runAvg speedWind from/ knotsBaromVisibWave heightAir tempDewpointWater temp
2018-Jun-25 07:55N 29°36' W 094°25'2 4.7
2018-Jun-25 07:28N 29°36' W 094°22'3 5.4
2018-Jun-25 06:59N 29°37' W 094°20'3 5.2
2018-Jun-25 06:29N 29°39' W 094°17'2 4.9
2018-Jun-25 06:01N 29°40' W 094°15'3 5.2
2018-Jun-25 05:30N 29°41' W 094°12'3 5.1
2018-Jun-25 05:01N 29°42' W 094°09'2 4.7
2018-Jun-25 04:31N 29°43' W 094°07'3 5.2
2018-Jun-25 04:00N 29°45' W 094°05'2 4.9
2018-Jun-25 03:31N 29°46' W 094°02'2 4.6
2018-Jun-25 03:01N 29°48' W 094°00'2 4.7
2018-Jun-25 02:30N 29°49' W 093°58'3 6.0
2018-Jun-25 02:00N 29°52' W 093°56'4 8.0
2018-Jun-25 01:30N 29°55' W 093°53'4 7.3
2018-Jun-25 01:00N 29°58' W 093°51'3 6.5
2018-Jun-25 00:31N 29°59' W 093°55'2 3.1
2018-Jun-25 00:01N 29°60' W 093°57'0 0.0
2018-Jun-24 23:31N 29°60' W 093°57'0 0.0
2018-Jun-24 23:01N 29°60' W 093°57'0 0.0
2018-Jun-24 22:31N 29°60' W 093°57'0 0.0
2018-Jun-24 22:01N 29°60' W 093°57'0 0.0
2018-Jun-24 21:31N 29°60' W 093°57'0 0.0
2018-Jun-24 21:00N 29°60' W 093°57'0 0.0
2018-Jun-24 20:31N 29°60' W 093°57'0 0.0
2018-Jun-24 20:00N 29°60' W 093°57'0 0.0
2018-Jun-24 19:31N 29°60' W 093°57'0 0.0
2018-Jun-24 19:01N 29°60' W 093°57'0 0.0
2018-Jun-24 18:30N 29°60' W 093°57'0 0.0
2018-Jun-24 18:01N 29°60' W 093°57'0 0.0
2018-Jun-24 17:30N 29°60' W 093°57'0 0.0
2018-Jun-24 17:00N 29°60' W 093°57'0 0.0
2018-Jun-24 16:30N 29°60' W 093°57'0 0.0
2018-Jun-24 16:00N 29°60' W 093°57'0 0.0
2018-Jun-24 15:30N 29°60' W 093°57'0 0.0
2018-Jun-24 15:01N 29°60' W 093°57'0 0.0
2018-Jun-24 14:31N 29°60' W 093°57'0 0.0
2018-Jun-24 14:01N 29°60' W 093°57'0 0.0
2018-Jun-24 13:31N 29°60' W 093°57'0 0.0
2018-Jun-24 13:01N 29°60' W 093°57'0 0.0
2018-Jun-24 12:30N 29°60' W 093°57'0 0.0
2018-Jun-24 12:01N 29°60' W 093°57'0 0.0
2018-Jun-24 11:31N 29°60' W 093°57'0 0.0
2018-Jun-24 11:00N 29°60' W 093°57'0 0.0
2018-Jun-24 10:31N 29°60' W 093°57'0 0.0
2018-Jun-24 10:01N 29°60' W 093°57'0 0.0
2018-Jun-24 09:31N 29°60' W 093°57'0 0.0
2018-Jun-24 09:01N 29°60' W 093°57'0 0.0
2018-Jun-24 08:30N 29°60' W 093°57'0 0.0
2018-Jun-24 08:01N 29°60' W 093°57'0 0.2
2018-Jun-24 07:30N 29°60' W 093°56'1 2.4
2018-Jun-24 07:00N 29°59' W 093°55'3 5.5
2018-Jun-24 06:30N 29°59' W 093°52'3 5.4
2018-Jun-24 06:01N 29°56' W 093°52'3 6.2
2018-Jun-24 05:31N 29°54' W 093°54'3 5.8
2018-Jun-24 05:01N 29°51' W 093°57'3 5.0
2018-Jun-24 04:30N 29°49' W 093°58'2 4.4
2018-Jun-24 04:00N 29°48' W 094°00'3 6.2
2018-Jun-24 03:31N 29°46' W 094°03'3 6.3
2018-Jun-24 03:00N 29°44' W 094°06'3 6.3
2018-Jun-24 02:30N 29°42' W 094°09'3 6.1
2018-Jun-24 02:00N 29°41' W 094°12'3 5.9
2018-Jun-24 01:30N 29°40' W 094°15'3 5.7
2018-Jun-24 00:59N 29°38' W 094°18'4 5.7
2018-Jun-24 00:19N 29°36' W 094°22'25 5.6
2018-Jun-23 19:51N 29°23' W 094°46'2 5.0
2018-Jun-23 19:29N 29°22' W 094°48'12 6.4
2018-Jun-23 17:35N 29°33' W 094°55'1 6.4
2018-Jun-23 17:23N 29°34' W 094°55'3 6.4
2018-Jun-23 17:00N 29°36' W 094°57'3 6.6
2018-Jun-23 16:30N 29°39' W 094°58'4 6.5
2018-Jun-23 15:54N 29°42' W 095°01'6 0.7
2018-Jun-23 07:13N 29°47' W 095°06'0 0.0
2018-Jun-23 07:00N 29°47' W 095°06'0 0.0
2018-Jun-23 06:31N 29°47' W 095°06'0 0.0
2018-Jun-23 06:00N 29°47' W 095°06'0 0.0
2018-Jun-23 05:29N 29°47' W 095°06'0 0.0
2018-Jun-23 05:00N 29°47' W 095°06'0 0.0
2018-Jun-23 04:30N 29°47' W 095°06'0 0.0
2018-Jun-23 03:59N 29°47' W 095°06'0 0.0
2018-Jun-23 03:30N 29°47' W 095°06'8 0.4
2018-Jun-22 06:16N 29°43' W 095°15'0 0.0
2018-Jun-22 05:58N 29°43' W 095°15'0 0.0
2018-Jun-22 04:42N 29°43' W 095°15'0 0.0
2018-Jun-22 03:45N 29°43' W 095°15'  
2018-Jun-19 18:05N 29°42' W 095°01'1 6.5
2018-Jun-19 17:57N 29°42' W 094°60'3 6.3
2018-Jun-19 17:30N 29°40' W 094°58'3 6.0
2018-Jun-19 17:00N 29°37' W 094°57'22 3.4
2018-Jun-19 10:33N 29°30' W 094°33'2 4.9
2018-Jun-19 10:13N 29°31' W 094°31'8 5.0
2018-Jun-19 08:43N 29°36' W 094°24'1 5.3
2018-Jun-19 08:30N 29°36' W 094°23'1 2.6
2018-Jun-19 08:00N 29°36' W 094°22'1 1.6
2018-Jun-19 07:30N 29°37' W 094°21'3 5.5
2018-Jun-19 07:00N 29°38' W 094°18'3 5.9
2018-Jun-19 06:30N 29°39' W 094°15'3 6.0
2018-Jun-19 06:00N 29°41' W 094°12'3 5.8
2018-Jun-19 05:30N 29°42' W 094°09'3 5.9
2018-Jun-19 05:01N 29°43' W 094°07'3 5.7
2018-Jun-19 04:30N 29°45' W 094°04'3 5.8
2018-Jun-19 04:01N 29°47' W 094°01'3 5.6
2018-Jun-19 03:30N 29°49' W 093°59'3 5.5
2018-Jun-19 03:01N 29°51' W 093°57'4 7.0
2018-Jun-19 02:30N 29°54' W 093°54'3 7.0
2018-Jun-19 02:00N 29°57' W 093°52'2 5.0
2018-Jun-19 01:31N 29°59' W 093°53'3 5.8
2018-Jun-19 01:00N 29°59' W 093°56'1 1.1
2018-Jun-19 00:31N 29°60' W 093°57'0 0.0
2018-Jun-19 00:00N 29°60' W 093°57'0 0.0
2018-Jun-18 23:30N 29°60' W 093°57'0 0.0
2018-Jun-18 23:01N 29°60' W 093°57'0 0.0
2018-Jun-18 22:31N 29°60' W 093°57'0 0.0
2018-Jun-18 22:01N 29°60' W 093°57'0 0.0
2018-Jun-18 21:31N 29°60' W 093°57'0 0.0
2018-Jun-18 21:01N 29°60' W 093°57'0 0.0
2018-Jun-18 20:31N 29°60' W 093°57'0 0.0
2018-Jun-18 20:00N 29°60' W 093°57'0 0.0
2018-Jun-18 19:31N 29°60' W 093°57'0 0.0
2018-Jun-18 19:00N 29°60' W 093°57'0 0.0
2018-Jun-18 18:31N 29°60' W 093°57'0 0.0
2018-Jun-18 18:00N 29°60' W 093°57'0 0.0
2018-Jun-18 17:31N 29°60' W 093°57'0 0.0
2018-Jun-18 17:01N 29°60' W 093°57'0 0.0
2018-Jun-18 16:31N 29°60' W 093°57'0 0.0
2018-Jun-18 16:01N 29°60' W 093°57'0 0.0
2018-Jun-18 15:31N 29°60' W 093°57'0 0.0
2018-Jun-18 15:01N 29°60' W 093°57'0 0.0
2018-Jun-18 14:31N 29°60' W 093°57'0 0.0
2018-Jun-18 14:01N 29°60' W 093°57'1 1.7
2018-Jun-18 13:30N 29°59' W 093°56'3 6.1
2018-Jun-18 13:01N 29°59' W 093°52'1 2.5
2018-Jun-18 12:31N 29°58' W 093°51'0 0.0
2018-Jun-18 12:00N 29°58' W 093°51'1 2.4
2018-Jun-18 11:31N 29°59' W 093°52'4 7.8
2018-Jun-18 11:01N 29°60' W 093°57'0 0.0
2018-Jun-18 10:31N 29°60' W 093°57'0 0.1
2018-Jun-18 10:01N 29°60' W 093°57'0 0.0
2018-Jun-18 09:30N 29°60' W 093°57'0 0.0
2018-Jun-18 09:01N 29°60' W 093°57'0 0.0
2018-Jun-18 08:31N 29°60' W 093°57'0 0.0
2018-Jun-18 08:00N 29°60' W 093°57'0 0.0
2018-Jun-18 07:31N 29°60' W 093°57'0 0.0
2018-Jun-18 07:00N 29°60' W 093°57'0 0.0
2018-Jun-18 06:31N 29°60' W 093°57'0 0.0
2018-Jun-18 06:01N 29°60' W 093°57'0 0.0
2018-Jun-18 05:30N 29°60' W 093°57'0 0.0
2018-Jun-18 05:01N 29°60' W 093°57'0 0.0
2018-Jun-18 04:30N 29°60' W 093°57'1 2.2
2018-Jun-18 04:00N 29°59' W 093°55'3 6.5
2018-Jun-18 03:30N 29°59' W 093°52'3 6.2
2018-Jun-18 03:01N 29°56' W 093°53'3 6.4
2018-Jun-18 02:31N 29°53' W 093°55'3 6.6
2018-Jun-18 02:00N 29°50' W 093°57'3 5.8
2018-Jun-18 01:31N 29°49' W 093°60'3 5.9
2018-Jun-18 01:00N 29°47' W 094°02'3 5.7
2018-Jun-18 00:30N 29°45' W 094°05'3 5.6
2018-Jun-18 00:00N 29°43' W 094°07'3 5.7
2018-Jun-17 23:30N 29°41' W 094°10'3 5.7
2018-Jun-17 23:00N 29°40' W 094°13'4 5.8
2018-Jun-17 22:24N 29°39' W 094°17'2 5.9
2018-Jun-17 22:00N 29°38' W 094°19'28 6.0
2018-Jun-17 17:21N 29°23' W 094°46'2 5.3
2018-Jun-17 17:00N 29°22' W 094°48'12 5.5
2018-Jun-17 14:48N 29°33' W 094°55'2 6.5
2018-Jun-17 14:30N 29°35' W 094°56'3 6.5
2018-Jun-17 13:59N 29°38' W 094°58'3 6.5
2018-Jun-17 13:30N 29°41' W 094°59'1 0.0
2018-Jun-15 11:46N 29°42' W 094°60'2 6.3
2018-Jun-15 11:30N 29°41' W 094°59'3 5.9
2018-Jun-15 10:59N 29°38' W 094°58'18 6.1
2018-Jun-15 08:04N 29°22' W 094°49'0 4.2
2018-Jun-15 08:00N 29°21' W 094°49'  

Dump ship's entire track history